Time;durP1;ratioP1;P1;durP2;ratioP2;P2;SDS_P1;SDS_P2;PMS_P1;PMS_P2;Temp;Humidity;BMP_temperature;BMP_pressure;BME280_temperature;BME280_humidity;BME280_pressure;Samples;Min_cycle;Max_cycle;Signal;HPM_P1;HPM_P2
2022/09/27 00:00:25;;;;;;;1.48;1.13;;;12.90;99.90;;;;;;5043529;28;20048;-82
2022/09/27 00:02:51;;;;;;;1.58;1.10;;;12.90;99.90;;;;;;5047593;28;20029;-80
2022/09/27 00:05:17;;;;;;;2.20;1.50;;;12.80;99.90;;;;;;5045821;28;20056;-81
2022/09/27 00:07:43;;;;;;;1.85;1.35;;;12.80;99.90;;;;;;5045784;28;20037;-82
2022/09/27 00:10:09;;;;;;;2.08;1.27;;;12.80;99.90;;;;;;5045695;28;20028;-84
2022/09/27 00:12:35;;;;;;;3.72;1.60;;;12.70;99.90;;;;;;5044589;28;20056;-83
2022/09/27 00:15:01;;;;;;;3.28;1.40;;;12.70;99.90;;;;;;5035793;28;20370;-84
2022/09/27 00:17:28;;;;;;;2.75;1.40;;;12.70;99.90;;;;;;5038597;28;20025;-82
2022/09/27 00:19:55;;;;;;;1.67;1.23;;;12.80;99.90;;;;;;5046917;28;20025;-83
2022/09/27 00:22:21;;;;;;;1.20;1.10;;;12.70;99.90;;;;;;5048576;28;20037;-82
2022/09/27 00:24:47;;;;;;;1.15;0.82;;;12.70;99.90;;;;;;5046536;28;20533;-81
2022/09/27 00:27:12;;;;;;;1.90;1.38;;;12.70;99.90;;;;;;5045689;28;20033;-82
2022/09/27 00:29:38;;;;;;;2.88;1.55;;;12.70;99.90;;;;;;5046529;28;20787;-82
2022/09/27 00:32:03;;;;;;;1.20;1.10;;;12.70;99.90;;;;;;5037799;28;20075;-82
2022/09/27 00:34:29;;;;;;;2.13;1.27;;;12.60;99.90;;;;;;5042332;28;20060;-82
2022/09/27 00:36:54;;;;;;;1.80;1.50;;;12.70;99.90;;;;;;5036739;28;20034;-82
2022/09/27 00:39:20;;;;;;;1.00;0.90;;;12.60;99.90;;;;;;5039330;28;20030;-82
2022/09/27 00:41:46;;;;;;;1.83;1.05;;;12.60;99.90;;;;;;5036578;28;20035;-83
2022/09/27 00:44:24;;;;;;;2.28;1.10;;;12.60;99.90;;;;;;5042488;28;20109;-81
2022/09/27 00:47:04;;;;;;;1.80;1.02;;;12.60;99.90;;;;;;5037984;28;20025;-82
2022/09/27 00:49:35;;;;;;;1.27;1.17;;;12.60;99.90;;;;;;5043966;28;20040;-83
2022/09/27 00:52:17;;;;;;;2.58;1.27;;;12.60;99.90;;;;;;5040369;28;20033;-82
2022/09/27 00:54:49;;;;;;;1.40;1.10;;;12.60;99.90;;;;;;5044167;28;20108;-81
2022/09/27 00:57:15;;;;;;;1.73;1.20;;;12.60;99.90;;;;;;5046864;28;20037;-81
2022/09/27 00:59:47;;;;;;;1.20;1.10;;;12.60;99.90;;;;;;5042703;28;20029;-81
2022/09/27 01:02:12;;;;;;;1.30;1.00;;;12.60;99.90;;;;;;5045042;28;20036;-82
2022/09/27 01:04:39;;;;;;;1.83;1.17;;;12.60;99.90;;;;;;5041371;28;20395;-81
2022/09/27 01:07:05;;;;;;;2.00;1.38;;;12.60;99.90;;;;;;5037690;28;20021;-83
2022/09/27 01:09:35;;;;;;;1.25;1.15;;;12.50;99.90;;;;;;5042850;28;20033;-83
2022/09/27 01:12:01;;;;;;;2.15;1.33;;;12.50;99.90;;;;;;5038903;28;20044;-82
2022/09/27 01:14:59;;;;;;;0.75;0.75;;;12.50;99.90;;;;;;5039794;28;20064;-81
2022/09/27 01:17:39;;;;;;;2.63;1.17;;;12.50;99.90;;;;;;5041148;28;20051;-83
2022/09/27 01:20:14;;;;;;;1.33;1.00;;;12.50;99.90;;;;;;5041694;28;20021;-83
2022/09/27 01:23:08;;;;;;;1.20;1.10;;;12.50;99.90;;;;;;5037182;28;20033;-82
2022/09/27 01:26:09;;;;;;;1.15;1.00;;;12.50;99.90;;;;;;5043538;28;20746;-82
2022/09/27 01:28:55;;;;;;;1.35;1.20;;;12.50;99.90;;;;;;5043190;28;20036;-81
2022/09/27 01:31:38;;;;;;;1.63;1.10;;;12.50;99.90;;;;;;5043506;28;20045;-83
2022/09/27 01:34:09;;;;;;;1.27;1.05;;;12.50;99.90;;;;;;5037310;28;20078;-80
2022/09/27 01:36:48;;;;;;;1.30;1.08;;;12.60;99.90;;;;;;5036408;28;20113;-81
2022/09/27 01:39:35;;;;;;;1.10;1.00;;;12.60;99.90;;;;;;5036273;28;20021;-82
2022/09/27 01:42:23;;;;;;;1.10;1.00;;;12.50;99.90;;;;;;5039176;28;20071;-86
2022/09/27 01:45:05;;;;;;;1.83;1.00;;;12.50;99.90;;;;;;5028583;28;20123;-84
2022/09/27 01:47:35;;;;;;;;;;;12.50;99.90;;;;;;5037266;28;20041;-83
2022/09/27 01:50:04;;;;;;;1.08;0.90;;;12.50;99.90;;;;;;5044687;28;19916;-82
2022/09/27 01:53:09;;;;;;;0.85;0.80;;;12.50;99.90;;;;;;5042039;28;20021;-79
2022/09/27 01:55:37;;;;;;;3.10;0.93;;;12.50;99.90;;;;;;5027081;28;20033;-80
2022/09/27 01:58:11;;;;;;;0.93;0.90;;;12.60;99.90;;;;;;5035834;28;20029;-82
2022/09/27 02:00:39;;;;;;;2.85;1.20;;;12.60;99.90;;;;;;5039491;28;20033;-82
2022/09/27 02:03:10;;;;;;;2.90;1.10;;;12.60;99.90;;;;;;5043373;28;20036;-81
2022/09/27 02:05:56;;;;;;;1.77;1.25;;;12.60;99.90;;;;;;5044192;28;20054;-83
2022/09/27 02:08:40;;;;;;;1.00;0.98;;;12.60;99.90;;;;;;5039247;28;20025;-81
2022/09/27 02:11:10;;;;;;;1.48;1.17;;;12.60;99.90;;;;;;5049004;28;20113;-81
2022/09/27 02:13:53;;;;;;;1.58;1.17;;;12.60;99.90;;;;;;5038576;28;20053;-82
2022/09/27 02:16:31;;;;;;;1.83;1.30;;;12.60;99.90;;;;;;5040693;28;20060;-80
2022/09/27 02:19:16;;;;;;;1.90;1.17;;;12.60;99.90;;;;;;5043298;28;20471;-79
2022/09/27 02:21:54;;;;;;;1.17;1.08;;;12.60;99.90;;;;;;5045640;28;21114;-79
2022/09/27 02:24:28;;;;;;;1.33;1.20;;;12.60;99.90;;;;;;5038296;28;20549;-80
2022/09/27 02:27:05;;;;;;;1.40;1.20;;;12.70;99.90;;;;;;5038503;28;20037;-81
2022/09/27 02:29:38;;;;;;;1.60;1.17;;;12.70;99.90;;;;;;5038068;28;20049;-80
2022/09/27 02:32:03;;;;;;;1.30;1.05;;;12.70;99.90;;;;;;5040982;28;20495;-81
2022/09/27 02:34:32;;;;;;;1.63;1.10;;;12.70;99.90;;;;;;5042544;28;20030;-80
2022/09/27 02:36:58;;;;;;;1.40;1.10;;;12.70;99.90;;;;;;5040285;28;20112;-81
2022/09/27 02:39:24;;;;;;;1.10;1.00;;;12.70;99.90;;;;;;5050046;28;20100;-79
2022/09/27 02:41:50;;;;;;;1.13;0.95;;;12.70;99.90;;;;;;5048484;28;20090;-81
2022/09/27 02:44:17;;;;;;;1.27;1.00;;;12.70;99.90;;;;;;5042799;28;20132;-79
2022/09/27 02:47:06;;;;;;;1.20;1.10;;;12.70;99.90;;;;;;5046592;28;20061;-80
2022/09/27 02:49:58;;;;;;;1.70;1.08;;;12.70;99.90;;;;;;5037137;28;20568;-81
2022/09/27 02:52:47;;;;;;;1.38;1.00;;;12.70;99.90;;;;;;5039640;28;20037;-79
2022/09/27 02:55:19;;;;;;;2.53;1.00;;;12.70;99.90;;;;;;5043651;28;20044;-81
2022/09/27 02:57:55;;;;;;;1.80;1.00;;;12.70;99.90;;;;;;5045736;28;20021;-80
2022/09/27 03:00:32;;;;;;;1.52;1.10;;;12.80;99.90;;;;;;5039006;28;20208;-79
2022/09/27 03:03:27;;;;;;;0.90;0.90;;;12.90;99.90;;;;;;5046058;28;20037;-80
2022/09/27 03:06:14;;;;;;;1.10;1.00;;;12.90;99.90;;;;;;5046652;28;20037;-80
2022/09/27 03:08:40;;;;;;;1.35;1.00;;;12.80;99.90;;;;;;5044597;28;20392;-83
2022/09/27 03:11:06;;;;;;;2.35;0.90;;;12.80;99.90;;;;;;5053701;28;20047;-80
2022/09/27 03:13:33;;;;;;;1.10;0.93;;;12.90;99.90;;;;;;5044713;28;20033;-79
2022/09/27 03:15:59;;;;;;;1.38;0.98;;;12.90;99.90;;;;;;5044068;28;20029;-80
2022/09/27 03:18:24;;;;;;;1.35;1.05;;;12.90;99.90;;;;;;5047577;28;20035;-80
2022/09/27 03:20:52;;;;;;;1.35;1.08;;;12.90;99.90;;;;;;5048551;28;20148;-81
2022/09/27 03:23:18;;;;;;;1.85;0.95;;;12.90;99.90;;;;;;5045991;28;20037;-80
2022/09/27 03:25:44;;;;;;;3.80;1.10;;;12.90;99.90;;;;;;5037696;28;20029;-79
2022/09/27 03:28:09;;;;;;;1.38;1.00;;;12.90;99.90;;;;;;5039856;28;20020;-80
2022/09/27 03:30:35;;;;;;;2.78;1.30;;;12.80;99.90;;;;;;5040975;28;20065;-80
2022/09/27 03:33:00;;;;;;;1.88;1.23;;;12.90;99.90;;;;;;5040944;28;20570;-81
2022/09/27 03:35:25;;;;;;;1.02;0.93;;;12.90;99.90;;;;;;5047466;28;20039;-81
2022/09/27 03:37:51;;;;;;;1.48;1.10;;;12.90;99.90;;;;;;5031640;28;20022;-80
2022/09/27 03:40:16;;;;;;;2.03;1.48;;;12.90;99.90;;;;;;5037165;28;20033;-80
2022/09/27 03:42:42;;;;;;;1.27;1.17;;;12.90;99.90;;;;;;5046833;28;20094;-80
2022/09/27 03:45:08;;;;;;;2.78;1.33;;;12.90;99.90;;;;;;5043675;28;20105;-80
2022/09/27 03:47:34;;;;;;;1.95;1.35;;;12.80;99.90;;;;;;5042967;28;20472;-84
2022/09/27 03:49:59;;;;;;;1.45;1.27;;;12.80;99.90;;;;;;5045290;28;20028;-77
2022/09/27 03:52:24;;;;;;;1.42;1.23;;;12.80;99.90;;;;;;5027307;28;20107;-80
2022/09/27 03:54:50;;;;;;;2.33;1.23;;;12.80;99.90;;;;;;5040862;28;20044;-79
2022/09/27 03:57:15;;;;;;;1.52;1.42;;;12.70;99.90;;;;;;5033516;28;20029;-81
2022/09/27 03:59:41;;;;;;;1.20;1.10;;;12.70;99.90;;;;;;5030295;28;20511;-82
2022/09/27 04:02:06;;;;;;;1.38;1.20;;;12.70;99.90;;;;;;5035755;28;20029;-83
2022/09/27 04:04:32;;;;;;;1.73;1.38;;;12.70;99.90;;;;;;5037258;28;20025;-83
2022/09/27 04:06:59;;;;;;;1.75;1.35;;;12.70;99.90;;;;;;5037204;28;20049;-82
2022/09/27 04:09:25;;;;;;;2.17;1.30;;;12.60;99.90;;;;;;5036756;28;20656;-81
2022/09/27 04:11:50;;;;;;;1.63;1.35;;;12.60;99.90;;;;;;5036598;28;20079;-83
2022/09/27 04:14:16;;;;;;;1.35;1.20;;;12.60;99.90;;;;;;5035605;28;20389;-83
2022/09/27 04:16:41;;;;;;;1.60;1.27;;;12.60;99.90;;;;;;5037033;28;20017;-83
2022/09/27 04:19:07;;;;;;;2.10;1.30;;;12.60;99.90;;;;;;5037609;28;20033;-83
2022/09/27 04:21:34;;;;;;;3.17;1.50;;;12.50;99.90;;;;;;5035955;28;20379;-80
2022/09/27 04:23:59;;;;;;;2.45;1.17;;;12.50;99.90;;;;;;5037296;28;20596;-81
2022/09/27 04:26:25;;;;;;;1.55;1.33;;;12.50;99.90;;;;;;5035413;28;20117;-81
2022/09/27 04:28:52;;;;;;;2.10;1.40;;;12.40;99.90;;;;;;5035508;28;20039;-82
2022/09/27 04:31:27;;;;;;;1.33;1.10;;;12.40;99.90;;;;;;5035516;28;20523;-83
2022/09/27 04:33:53;;;;;;;3.63;1.30;;;12.40;99.90;;;;;;5037141;28;20080;-82
2022/09/27 04:36:26;;;;;;;1.40;1.20;;;12.40;99.90;;;;;;5034185;28;20476;-86
2022/09/27 04:38:53;;;;;;;1.13;1.00;;;12.40;99.90;;;;;;5032504;28;20029;-81
2022/09/27 04:41:20;;;;;;;2.35;1.40;;;12.40;99.90;;;;;;5037142;28;20060;-81
2022/09/27 04:43:46;;;;;;;1.85;1.45;;;12.50;99.90;;;;;;5036165;28;20029;-81
2022/09/27 04:46:12;;;;;;;2.25;1.30;;;12.50;99.90;;;;;;5036616;28;21166;-81
2022/09/27 04:48:38;;;;;;;3.30;1.50;;;12.50;99.90;;;;;;5036862;28;20499;-82
2022/09/27 04:51:04;;;;;;;2.95;1.23;;;12.40;99.90;;;;;;5035598;28;20036;-81
2022/09/27 04:53:30;;;;;;;1.10;1.00;;;12.40;99.90;;;;;;5035644;28;20541;-81
2022/09/27 04:55:56;;;;;;;2.72;1.05;;;12.30;99.90;;;;;;5036819;28;20036;-82
2022/09/27 04:58:22;;;;;;;1.60;1.33;;;12.30;99.90;;;;;;5036803;28;20029;-81
2022/09/27 05:00:49;;;;;;;4.82;1.10;;;12.20;99.90;;;;;;5036969;28;20026;-81
2022/09/27 05:03:14;;;;;;;1.25;1.02;;;12.20;99.90;;;;;;5034169;28;20538;-83
2022/09/27 05:05:40;;;;;;;1.77;1.30;;;12.00;99.90;;;;;;5038173;28;20155;-82
2022/09/27 05:08:06;;;;;;;1.30;1.10;;;12.00;99.90;;;;;;5034288;28;20036;-83
2022/09/27 05:10:31;;;;;;;1.80;1.23;;;12.10;99.90;;;;;;5033150;28;20057;-84
2022/09/27 05:12:57;;;;;;;1.27;0.98;;;12.10;99.90;;;;;;5035905;28;20065;-82
2022/09/27 05:15:25;;;;;;;1.35;1.20;;;12.00;99.90;;;;;;5035508;28;20096;-82
2022/09/27 05:17:51;;;;;;;1.20;1.10;;;12.10;99.90;;;;;;5036834;28;20075;-83
2022/09/27 05:20:17;;;;;;;1.42;1.30;;;12.10;99.90;;;;;;5033661;28;20456;-83
2022/09/27 05:22:42;;;;;;;2.22;1.40;;;12.10;99.90;;;;;;5035323;28;20442;-83
2022/09/27 05:25:08;;;;;;;2.30;1.27;;;12.10;99.90;;;;;;5037734;28;20029;-84
2022/09/27 05:27:33;;;;;;;1.42;1.17;;;12.10;99.90;;;;;;5035162;28;20086;-84
2022/09/27 05:30:02;;;;;;;2.20;1.25;;;12.00;99.90;;;;;;5036164;28;20041;-86
2022/09/27 05:32:28;;;;;;;2.92;1.20;;;12.00;99.90;;;;;;5036860;28;20032;-76
2022/09/27 05:34:54;;;;;;;1.33;1.10;;;12.00;99.90;;;;;;5036347;28;20029;-86
2022/09/27 05:37:19;;;;;;;1.80;1.25;;;12.00;99.90;;;;;;5034194;28;20017;-81
2022/09/27 05:39:45;;;;;;;3.55;1.27;;;11.90;99.90;;;;;;5037531;28;20108;-82
2022/09/27 05:42:18;;;;;;;2.15;1.20;;;11.90;99.90;;;;;;5035171;28;20037;-82
2022/09/27 05:44:46;;;;;;;1.35;1.25;;;11.60;99.90;;;;;;5036662;28;20123;-88
2022/09/27 05:47:11;;;;;;;1.52;1.20;;;11.50;99.90;;;;;;5032897;28;20087;-88
2022/09/27 05:49:39;;;;;;;1.15;1.02;;;11.50;99.90;;;;;;5036465;28;20025;-78
2022/09/27 05:52:05;;;;;;;2.80;1.27;;;11.50;99.90;;;;;;5034022;28;20033;-78
2022/09/27 05:54:32;;;;;;;2.22;1.58;;;11.60;99.90;;;;;;5031949;28;20025;-74
2022/09/27 05:56:58;;;;;;;1.67;1.30;;;11.60;99.90;;;;;;5036887;28;20023;-83
2022/09/27 05:59:24;;;;;;;1.85;1.50;;;11.70;99.90;;;;;;5034216;28;20033;-81
2022/09/27 06:01:50;;;;;;;1.30;1.20;;;11.70;99.90;;;;;;5035483;28;20033;-79
2022/09/27 06:04:16;;;;;;;2.90;1.30;;;11.80;99.90;;;;;;5036571;28;20074;-80
2022/09/27 06:06:43;;;;;;;1.83;1.30;;;11.70;99.90;;;;;;5039491;28;20030;-82
2022/09/27 06:09:13;;;;;;;2.80;1.65;;;11.80;99.90;;;;;;5037921;28;20025;-80
2022/09/27 06:11:40;;;;;;;3.05;1.70;;;11.80;99.90;;;;;;5037734;28;20033;-80
2022/09/27 06:14:05;;;;;;;1.50;1.40;;;11.80;99.90;;;;;;5037921;28;20025;-81
2022/09/27 06:16:31;;;;;;;1.40;1.10;;;11.70;99.90;;;;;;5037794;28;20853;-80
2022/09/27 06:18:56;;;;;;;1.63;1.52;;;11.80;99.90;;;;;;5036987;28;20487;-80
2022/09/27 06:21:22;;;;;;;1.85;1.27;;;11.90;99.90;;;;;;5039571;28;20025;-82
2022/09/27 06:23:48;;;;;;;2.40;1.48;;;11.90;99.90;;;;;;5039934;28;20025;-80
2022/09/27 06:26:14;;;;;;;1.92;1.15;;;12.00;99.90;;;;;;5040378;28;20037;-81
2022/09/27 06:28:40;;;;;;;1.52;1.40;;;12.00;99.90;;;;;;5039557;28;20483;-89
2022/09/27 06:31:07;;;;;;;1.67;1.20;;;12.00;99.90;;;;;;5042750;28;20049;-82
2022/09/27 06:33:34;;;;;;;1.98;1.13;;;12.10;99.90;;;;;;5047385;28;20036;-87
2022/09/27 06:36:02;;;;;;;2.30;1.15;;;12.10;99.90;;;;;;5040851;28;20052;-88
2022/09/27 06:38:28;;;;;;;2.13;1.40;;;12.20;99.90;;;;;;5041450;28;20079;-85
2022/09/27 06:40:57;;;;;;;1.30;1.20;;;12.30;99.90;;;;;;5048147;28;20028;-86
2022/09/27 06:43:23;;;;;;;2.47;1.20;;;12.30;99.90;;;;;;5049838;28;20066;-83
2022/09/27 06:45:49;;;;;;;2.78;1.25;;;12.20;99.90;;;;;;5049258;28;20032;-83
2022/09/27 06:48:16;;;;;;;2.30;1.20;;;12.20;99.90;;;;;;5042656;28;20025;-83
2022/09/27 06:50:43;;;;;;;2.03;1.65;;;12.30;99.90;;;;;;5043682;28;20771;-84
2022/09/27 06:53:11;;;;;;;2.88;1.30;;;12.30;99.90;;;;;;5046827;28;20032;-83
2022/09/27 06:55:37;;;;;;;1.75;1.40;;;12.40;99.90;;;;;;5034708;28;20035;-86
2022/09/27 07:00:52;;;;;;;3.30;1.35;;;12.20;99.90;;;;;;5047243;28;20048;-83
2022/09/27 07:03:18;;;;;;;1.50;1.40;;;12.30;99.90;;;;;;5038040;28;20103;-83
2022/09/27 07:05:54;;;;;;;1.25;1.15;;;12.40;99.90;;;;;;5037988;28;20029;-84
2022/09/27 07:08:20;;;;;;;1.95;1.17;;;12.40;99.90;;;;;;5041796;28;20118;-82
2022/09/27 07:10:45;;;;;;;1.10;1.00;;;12.50;99.90;;;;;;5048711;28;20037;-83
2022/09/27 07:13:11;;;;;;;1.65;1.00;;;12.40;99.90;;;;;;5044955;28;20120;-81
2022/09/27 07:15:40;;;;;;;1.60;1.30;;;12.20;99.90;;;;;;5047393;28;20107;-81
2022/09/27 07:18:06;;;;;;;1.73;1.25;;;12.30;99.90;;;;;;5045047;28;20031;-86
2022/09/27 07:20:36;;;;;;;2.85;1.48;;;12.30;99.90;;;;;;5040540;28;20519;-79
2022/09/27 07:23:02;;;;;;;2.13;1.45;;;12.30;99.90;;;;;;5041943;28;20115;-77
2022/09/27 07:25:27;;;;;;;1.77;1.38;;;12.30;99.90;;;;;;5040254;28;20025;-80
2022/09/27 07:27:53;;;;;;;1.60;1.50;;;12.30;99.90;;;;;;5045067;28;20237;-80
2022/09/27 07:30:20;;;;;;;1.65;1.27;;;12.40;99.90;;;;;;5043034;28;20041;-81
2022/09/27 07:32:46;;;;;;;2.10;1.35;;;12.50;99.90;;;;;;5046680;28;20087;-80
2022/09/27 07:35:14;;;;;;;1.80;1.23;;;12.60;99.90;;;;;;5033318;28;20132;-80
2022/09/27 07:37:40;;;;;;;1.73;1.50;;;12.60;99.90;;;;;;5043176;28;20567;-80
2022/09/27 07:40:08;;;;;;;1.48;1.23;;;12.60;99.90;;;;;;5041284;28;20029;-81
2022/09/27 07:42:33;;;;;;;1.40;1.30;;;12.50;99.90;;;;;;5038612;28;20028;-79
2022/09/27 07:44:59;;;;;;;0.98;0.90;;;12.40;99.90;;;;;;5047005;28;20037;-82
2022/09/27 07:47:26;;;;;;;2.30;1.60;;;12.40;99.90;;;;;;5042091;28;20136;-83
2022/09/27 07:49:52;;;;;;;2.30;1.42;;;12.40;99.90;;;;;;5047873;28;20033;-81
2022/09/27 07:52:19;;;;;;;1.90;1.40;;;12.50;99.90;;;;;;5044230;28;20029;-86
2022/09/27 07:54:46;;;;;;;1.42;1.33;;;12.50;99.90;;;;;;5032505;28;20450;-79
2022/09/27 07:57:12;;;;;;;1.65;1.23;;;12.50;99.90;;;;;;5038922;28;20029;-78
2022/09/27 07:59:38;;;;;;;2.83;1.50;;;12.60;99.90;;;;;;5035397;28;20025;-81
2022/09/27 08:02:03;;;;;;;1.85;1.33;;;12.70;99.90;;;;;;5033141;28;20361;-85
2022/09/27 08:04:29;;;;;;;2.22;1.38;;;12.80;99.90;;;;;;5028529;28;20037;-82
2022/09/27 08:06:54;;;;;;;2.75;1.65;;;12.80;99.90;;;;;;5029568;28;20030;-84
2022/09/27 08:09:20;;;;;;;1.67;1.27;;;12.80;99.90;;;;;;5032448;28;20745;-86
2022/09/27 08:11:45;;;;;;;1.50;1.17;;;12.80;99.90;;;;;;5033252;28;20029;-80
2022/09/27 08:14:11;;;;;;;1.60;1.30;;;12.60;99.90;;;;;;5038080;28;20542;-83
2022/09/27 08:16:37;;;;;;;2.00;1.30;;;12.70;99.90;;;;;;5030492;28;20472;-79
2022/09/27 08:19:03;;;;;;;1.60;1.50;;;12.70;99.90;;;;;;5028573;28;20035;-83
2022/09/27 08:21:29;;;;;;;1.48;1.27;;;12.60;99.90;;;;;;5040004;28;20666;-87
2022/09/27 08:23:55;;;;;;;2.30;1.83;;;12.60;99.90;;;;;;5031070;28;20063;-83
2022/09/27 08:26:20;;;;;;;1.67;1.40;;;12.60;99.90;;;;;;5037021;28;20056;-86
2022/09/27 08:28:47;;;;;;;3.47;1.63;;;12.60;99.90;;;;;;5039784;28;20052;-86
2022/09/27 08:31:12;;;;;;;1.55;1.35;;;12.60;99.90;;;;;;5034967;28;20110;-85
2022/09/27 08:33:38;;;;;;;1.38;1.27;;;12.60;99.90;;;;;;5033128;28;20056;-86
2022/09/27 08:36:08;;;;;;;2.55;1.42;;;12.60;99.90;;;;;;5033051;28;20104;-85
2022/09/27 08:38:34;;;;;;;1.87;1.30;;;12.60;99.90;;;;;;5028109;28;20048;-84
2022/09/27 08:41:35;;;;;;;2.38;1.30;;;12.70;99.90;;;;;;5042001;28;20279;-85
2022/09/27 08:44:10;;;;;;;1.77;1.38;;;12.60;99.90;;;;;;5030488;28;20031;-85
2022/09/27 08:46:52;;;;;;;2.22;1.63;;;12.70;99.90;;;;;;5025047;28;20029;-84
2022/09/27 08:49:42;;;;;;;1.25;1.15;;;12.70;99.90;;;;;;5036342;28;20434;-85
2022/09/27 08:52:31;;;;;;;1.75;1.63;;;12.90;99.90;;;;;;5039642;28;20025;-85
2022/09/27 08:55:03;;;;;;;2.42;1.40;;;13.00;99.90;;;;;;5023887;28;20504;-86
2022/09/27 08:57:28;;;;;;;;;;;13.20;99.90;;;;;;5023606;28;20116;-85
2022/09/27 09:00:05;;;;;;;1.88;1.42;;;13.00;99.90;;;;;;5035335;28;19920;-84
2022/09/27 09:02:31;;;;;;;2.45;1.48;;;13.00;99.90;;;;;;5039589;28;20037;-86
2022/09/27 09:05:09;;;;;;;2.63;1.27;;;12.90;99.90;;;;;;5032165;28;20033;-83
2022/09/27 09:07:53;;;;;;;1.60;1.45;;;12.90;99.90;;;;;;5030804;28;20500;-82
2022/09/27 09:13:46;;;;;;;1.42;1.30;;;13.10;99.90;;;;;;5025102;28;20055;-84
2022/09/27 09:16:21;;;;;;;1.75;1.50;;;13.30;99.90;;;;;;5027733;28;20025;-85
2022/09/27 09:19:14;;;;;;;2.15;1.60;;;13.30;99.90;;;;;;5030008;28;20032;-83
2022/09/27 09:22:16;;;;;;;1.73;1.48;;;13.50;99.90;;;;;;5031308;28;20065;-85
2022/09/27 09:24:58;;;;;;;2.17;1.50;;;13.70;99.90;;;;;;5036967;28;20138;-85
2022/09/27 09:27:49;;;;;;;1.83;1.42;;;13.70;99.90;;;;;;5034735;28;20033;-84
2022/09/27 09:30:21;;;;;;;1.92;1.58;;;13.40;99.90;;;;;;5031387;28;20047;-84
2022/09/27 09:33:12;;;;;;;1.85;1.48;;;13.50;99.90;;;;;;5035264;28;20032;-84
2022/09/27 09:36:04;;;;;;;1.60;1.50;;;13.60;99.90;;;;;;5033579;28;20388;-84
2022/09/27 09:38:57;;;;;;;1.85;1.20;;;13.70;99.90;;;;;;5027625;28;20028;-86
2022/09/27 09:42:01;;;;;;;1.98;1.35;;;13.80;99.90;;;;;;5032366;28;20036;-81
2022/09/27 09:44:54;;;;;;;1.40;1.25;;;13.90;99.90;;;;;;5035745;28;20037;-85
2022/09/27 09:47:29;;;;;;;2.00;1.60;;;14.00;99.90;;;;;;5030121;28;20051;-85
2022/09/27 09:50:01;;;;;;;1.48;1.38;;;14.10;99.90;;;;;;5025583;28;20041;-83
2022/09/27 09:52:38;;;;;;;1.70;1.48;;;14.40;99.90;;;;;;5020741;28;20611;-83
2022/09/27 09:55:18;;;;;;;1.52;1.30;;;14.40;99.90;;;;;;5026805;28;20038;-79
2022/09/27 09:57:53;;;;;;;2.55;1.58;;;14.30;99.90;;;;;;5026993;28;20510;-83
2022/09/27 10:00:18;;;;;;;2.33;1.52;;;14.00;99.90;;;;;;5032729;28;20029;-79
2022/09/27 10:02:46;;;;;;;2.58;1.40;;;14.00;99.90;;;;;;5033491;28;20044;-81
2022/09/27 10:05:21;;;;;;;2.25;1.63;;;13.80;99.90;;;;;;5031166;28;20128;-81
2022/09/27 10:07:49;;;;;;;2.03;1.70;;;13.60;99.90;;;;;;5039515;28;20029;-81
2022/09/27 10:10:17;;;;;;;1.60;1.45;;;13.70;99.90;;;;;;5036868;28;20078;-77
2022/09/27 10:12:44;;;;;;;1.95;1.67;;;13.70;99.90;;;;;;5023345;28;20060;-77
2022/09/27 10:15:18;;;;;;;1.50;1.40;;;13.90;99.90;;;;;;5030555;28;20026;-76
2022/09/27 10:17:50;;;;;;;1.80;1.65;;;14.10;99.90;;;;;;5036474;28;20029;-76
2022/09/27 10:20:45;;;;;;;2.13;1.90;;;14.10;99.90;;;;;;5023359;28;20033;-79
2022/09/27 10:23:23;;;;;;;1.77;1.63;;;14.20;99.90;;;;;;5026541;28;20561;-78
2022/09/27 10:25:56;;;;;;;1.70;1.60;;;14.30;99.90;;;;;;5035139;28;20029;-81
2022/09/27 10:28:41;;;;;;;1.70;1.60;;;14.90;99.90;;;;;;5041451;28;20056;-80
2022/09/27 10:31:35;;;;;;;2.50;1.42;;;15.30;99.90;;;;;;5029594;28;20554;-88
2022/09/27 10:34:06;;;;;;;1.90;1.65;;;15.10;99.90;;;;;;5027832;28;20064;-82
2022/09/27 10:36:34;;;;;;;1.98;1.77;;;14.50;99.90;;;;;;5025210;28;20086;-79
2022/09/27 10:39:22;;;;;;;1.80;1.70;;;14.30;99.90;;;;;;5038730;28;20107;-79
2022/09/27 10:41:48;;;;;;;1.85;1.70;;;13.90;99.90;;;;;;5031971;28;20039;-80
2022/09/27 10:44:16;;;;;;;2.58;1.88;;;13.60;99.90;;;;;;5029342;28;20033;-79
2022/09/27 10:46:44;;;;;;;1.70;1.60;;;13.60;99.90;;;;;;5027127;28;20132;-81
2022/09/27 10:49:26;;;;;;;2.20;1.63;;;13.60;99.90;;;;;;5032009;28;20025;-76
2022/09/27 10:51:56;;;;;;;;;;;13.70;99.90;;;;;;5038023;28;20120;-78
2022/09/27 10:54:31;;;;;;;2.70;1.60;;;13.80;99.90;;;;;;5036237;28;19909;-76
2022/09/27 10:56:58;;;;;;;1.58;1.45;;;13.70;99.90;;;;;;5030741;28;20764;-75
2022/09/27 10:59:26;;;;;;;2.22;1.90;;;13.70;99.90;;;;;;5042331;28;20416;-78
2022/09/27 11:01:52;;;;;;;1.80;1.70;;;14.30;99.90;;;;;;5038157;28;20060;-77
2022/09/27 11:04:29;;;;;;;2.33;1.70;;;15.00;99.90;;;;;;5035437;28;20064;-75
2022/09/27 11:07:21;;;;;;;2.35;1.90;;;15.20;99.90;;;;;;5034083;28;20028;-79
2022/09/27 11:09:49;;;;;;;2.10;1.88;;;15.20;99.90;;;;;;5033913;28;20033;-81
2022/09/27 11:12:19;;;;;;;1.92;1.73;;;15.00;99.90;;;;;;5029142;28;20027;-79
2022/09/27 11:15:01;;;;;;;1.80;1.50;;;14.80;99.90;;;;;;5026963;28;20025;-80
2022/09/27 11:17:37;;;;;;;5.00;2.35;;;14.60;99.90;;;;;;5037899;28;20108;-80
2022/09/27 11:20:38;;;;;;;4.10;2.13;;;14.50;99.90;;;;;;5033717;28;20068;-81
2022/09/27 11:23:15;;;;;;;3.20;2.08;;;14.60;99.90;;;;;;5025372;28;20427;-80
2022/09/27 11:25:43;;;;;;;2.58;2.22;;;14.80;99.90;;;;;;5034528;28;20200;-81
2022/09/27 11:28:23;;;;;;;5.35;1.92;;;14.60;99.90;;;;;;5036580;28;20039;-80
2022/09/27 11:31:11;;;;;;;2.25;1.92;;;14.50;99.90;;;;;;5036005;28;20058;-80
2022/09/27 11:34:18;;;;;;;5.47;2.08;;;14.90;99.90;;;;;;5033866;28;20056;-79
2022/09/27 11:36:52;;;;;;;3.70;3.00;;;15.10;99.90;;;;;;5029502;28;20033;-80
2022/09/27 11:40:03;;;;;;;4.35;2.50;;;15.20;99.90;;;;;;5033237;28;20025;-79
2022/09/27 11:42:52;;;;;;;5.27;2.20;;;15.40;99.90;;;;;;5029641;28;20029;-80
2022/09/27 11:45:36;;;;;;;2.55;1.83;;;15.40;99.90;;;;;;5035146;28;20693;-79
2022/09/27 11:48:36;;;;;;;3.33;2.25;;;15.40;99.90;;;;;;5034286;28;20064;-81
2022/09/27 11:51:32;;;;;;;5.63;1.83;;;15.00;99.90;;;;;;5032910;28;20021;-82
2022/09/27 11:54:20;;;;;;;3.58;1.67;;;14.40;99.90;;;;;;5034147;28;20048;-77
2022/09/27 11:57:01;;;;;;;0.63;0.50;;;13.60;99.90;;;;;;5034685;28;20029;-84
2022/09/27 11:59:51;;;;;;;0.80;0.80;;;12.50;99.90;;;;;;5031805;28;20029;-82
2022/09/27 12:02:40;;;;;;;0.77;0.47;;;11.90;99.90;;;;;;5040665;28;20116;-78
2022/09/27 12:05:20;;;;;;;0.60;0.45;;;11.20;99.90;;;;;;5034894;28;20490;-85
2022/09/27 12:08:04;;;;;;;0.60;0.60;;;11.10;99.90;;;;;;5032284;28;20067;-79
2022/09/27 12:10:29;;;;;;;0.55;0.55;;;10.90;99.90;;;;;;5036203;28;20033;-77
2022/09/27 12:12:57;;;;;;;0.50;0.50;;;10.70;99.90;;;;;;5041842;28;20041;-79
2022/09/27 12:15:29;;;;;;;1.08;0.82;;;10.70;99.90;;;;;;5038568;28;20541;-79
2022/09/27 12:18:21;;;;;;;0.50;0.43;;;10.90;99.90;;;;;;5037342;28;20020;-80
2022/09/27 12:20:48;;;;;;;0.80;0.80;;;10.80;99.90;;;;;;5023149;28;20106;-80
2022/09/27 12:23:28;;;;;;;2.05;1.20;;;11.00;99.90;;;;;;5036591;28;20487;-80
2022/09/27 12:26:01;;;;;;;1.20;0.95;;;11.10;99.90;;;;;;5036298;28;20037;-78
2022/09/27 12:28:49;;;;;;;1.10;1.00;;;11.20;99.90;;;;;;5040107;28;20098;-81
2022/09/27 12:31:24;;;;;;;1.58;0.90;;;11.30;99.90;;;;;;5037951;28;20526;-80
2022/09/27 12:34:20;;;;;;;1.35;0.80;;;11.30;99.90;;;;;;5032186;28;20021;-81
2022/09/27 12:37:15;;;;;;;2.15;1.15;;;11.50;99.90;;;;;;5036796;28;20652;-80
2022/09/27 12:40:02;;;;;;;3.47;1.65;;;11.90;99.90;;;;;;5042533;28;20175;-81
2022/09/27 12:42:43;;;;;;;1.08;0.90;;;12.00;99.90;;;;;;5037663;28;20028;-83
2022/09/27 12:45:13;;;;;;;1.05;0.98;;;11.80;99.90;;;;;;5034067;28;20052;-80
2022/09/27 12:48:11;;;;;;;1.20;1.10;;;11.60;99.90;;;;;;5036144;28;20134;-82
2022/09/27 12:50:45;;;;;;;1.20;0.70;;;11.80;99.90;;;;;;5035195;28;20477;-82
2022/09/27 12:53:27;;;;;;;5.38;2.00;;;13.10;99.90;;;;;;5033882;28;20101;-83
2022/09/27 12:56:31;;;;;;;2.58;1.60;;;14.50;99.90;;;;;;5029557;28;20028;-80
2022/09/27 12:59:11;;;;;;;2.40;1.52;;;14.80;99.90;;;;;;5033628;28;20037;-81
2022/09/27 13:01:51;;;;;;;2.17;1.70;;;15.30;99.90;;;;;;5034620;28;20548;-80
2022/09/27 13:05:15;;;;;;;1.45;1.10;;;14.20;99.90;;;;;;5038514;28;20396;-83
2022/09/27 13:08:12;;;;;;;1.20;1.10;;;13.40;99.90;;;;;;5010662;28;20044;-81
2022/09/27 13:11:23;;;;;;;1.48;1.38;;;13.10;99.90;;;;;;5033195;28;20029;-85
2022/09/27 13:13:54;;;;;;;1.50;1.33;;;13.20;99.90;;;;;;5034598;28;20048;-83
2022/09/27 13:16:20;;;;;;;4.50;1.95;;;13.40;99.90;;;;;;5033273;28;20029;-82
2022/09/27 13:19:02;;;;;;;3.33;1.92;;;13.40;99.90;;;;;;5033279;28;20021;-80
2022/09/27 13:21:53;;;;;;;1.98;1.40;;;13.60;99.90;;;;;;5032776;28;20584;-79
2022/09/27 13:24:38;;;;;;;;;;;13.20;99.90;;;;;;5036139;28;20562;-78